Time;durP1;ratioP1;P1;durP2;ratioP2;P2;SDS_P1;SDS_P2;PMS_P1;PMS_P2;Temp;Humidity;BMP_temperature;BMP_pressure;BME280_temperature;BME280_humidity;BME280_pressure;Samples;Min_cycle;Max_cycle;Signal;HPM_P1;HPM_P2
2022/12/17 13:06:51;;;;;;;62.40;25.60;;;;;;;-4.10;88.35;101398.41;1713156;82;27438;-82
2022/12/17 13:09:32;;;;;;;60.03;24.37;;;;;;;-4.06;88.76;101394.72;1722750;81;25789;-84
2022/12/17 13:12:07;;;;;;;51.85;22.95;;;;;;;-4.05;88.30;101401.66;1725692;80;25857;-81
2022/12/17 13:14:59;;;;;;;61.92;25.75;;;;;;;-4.04;88.31;101410.34;1730467;81;25944;-81
2022/12/17 13:17:39;;;;;;;60.35;26.10;;;;;;;-4.10;87.79;101418.03;1731721;81;25757;-86
2022/12/17 13:20:33;;;;;;;61.00;25.80;;;;;;;-4.20;87.57;101425.95;1725061;82;28303;-85
2022/12/17 13:23:16;;;;;;;66.22;26.37;;;;;;;-4.28;87.62;101433.77;1728007;81;25903;-84
2022/12/17 13:25:45;;;;;;;60.12;25.57;;;;;;;-4.30;87.97;101436.44;1730702;81;25332;-90
2022/12/17 13:28:30;;;;;;;59.93;23.92;;;;;;;-4.30;87.97;101436.44;1701854;83;26356;-88
2022/12/17 13:31:23;;;;;;;59.10;24.35;;;;;;;-4.30;87.87;101437.74;1728226;81;25500;-75
2022/12/17 13:34:18;;;;;;;48.80;19.45;;;;;;;-4.35;87.71;101439.75;1730812;81;27472;-75
2022/12/17 13:37:00;;;;;;;50.30;20.82;;;;;;;-4.35;87.92;101434.97;1733300;81;26019;-88
2022/12/17 13:39:46;;;;;;;44.48;19.02;;;;;;;-4.40;87.65;101436.94;1706205;82;25821;-89
2022/12/17 13:42:21;;;;;;;50.12;19.92;;;;;;;-4.45;87.70;101440.25;1729702;81;25819;-90
2022/12/17 13:44:49;;;;;;;59.60;24.50;;;;;;;-4.51;87.66;101440.06;1711716;81;25329;-87
2022/12/17 13:47:23;;;;;;;51.02;18.87;;;;;;;-4.58;87.45;101431.28;1717788;81;27457;-83
2022/12/17 13:49:55;;;;;;;53.35;23.35;;;;;;;-4.63;87.52;101437.16;1731080;82;26283;-85
2022/12/17 13:52:36;;;;;;;;;;;;;;;;;;;;;
2022/12/17 13:55:11;;;;;;;49.95;21.95;;;;;;;-4.80;87.63;101437.94;1727248;82;26126;-87
2022/12/17 13:57:41;;;;;;;57.78;23.73;;;;;;;-4.83;87.75;101436.75;1721434;82;25919;-73
2022/12/17 14:00:19;;;;;;;54.25;21.52;;;;;;;-4.87;87.84;101441.28;1734796;82;27485;-76
2022/12/17 14:02:46;;;;;;;45.25;19.15;;;;;;;-4.90;87.87;101445.81;1710485;83;25876;-76
2022/12/17 14:05:26;;;;;;;55.33;22.25;;;;;;;-4.96;88.03;101446.91;1722065;83;25869;-76
2022/12/17 14:07:59;;;;;;;49.63;21.70;;;;;;;-4.99;87.94;101455.35;1745361;81;26490;-77
2022/12/17 14:10:27;;;;;;;52.30;21.15;;;;;;;-5.06;88.00;101452.61;1723658;81;25754;-76
2022/12/17 14:13:07;;;;;;;54.70;22.95;;;;;;;-5.07;88.15;101460.08;1723816;82;27612;-76
2022/12/17 14:15:33;;;;;;;52.03;20.57;;;;;;;-5.12;88.18;101456.35;1727871;81;26123;-77
2022/12/17 14:18:01;;;;;;;54.38;24.02;;;;;;;-5.17;88.30;101457.45;1714841;83;26392;-76
2022/12/17 14:20:34;;;;;;;60.08;24.57;;;;;;;-5.22;88.19;101463.34;1721660;83;26581;-77
2022/12/17 14:23:09;;;;;;;52.70;22.75;;;;;;;-5.28;88.25;101467.53;1700981;83;26500;-76
2022/12/17 14:25:39;;;;;;;56.37;23.00;;;;;;;-5.28;88.54;101473.58;1713349;82;28367;-76
2022/12/17 14:28:26;;;;;;;55.63;22.30;;;;;;;-5.24;88.73;101478.23;1706311;82;25779;-76
2022/12/17 14:31:03;;;;;;;59.55;24.12;;;;;;;-5.23;88.80;101487.75;1698616;83;25784;-76
2022/12/17 14:33:33;;;;;;;55.40;23.05;;;;;;;-5.22;88.85;101494.69;1702981;83;26074;-76
2022/12/17 14:36:06;;;;;;;57.58;24.10;;;;;;;-5.25;88.75;101499.58;1704613;83;25906;-77
2022/12/17 14:38:34;;;;;;;63.33;25.48;;;;;;;-5.28;88.60;101503.61;1712658;83;27468;-76
2022/12/17 14:42:24;;;;;;;60.33;23.20;;;;;;;-5.28;88.80;101502.30;1701216;83;26490;-76
2022/12/17 14:43:32;;;;;;;61.02;26.62;;;;;;;-5.30;88.91;101508.53;1705058;83;25323;-88
2022/12/17 14:49:01;;;;;;;52.17;21.20;;;;;;;-5.31;88.92;101506.37;1717766;83;25852;-89
2022/12/17 14:51:35;;;;;;;58.42;24.67;;;;;;;-5.28;88.99;101511.44;1708259;83;27650;-83
2022/12/17 14:54:24;;;;;;;55.80;21.37;;;;;;;-5.30;88.86;101510.66;1714327;82;25355;-82
2022/12/17 14:56:57;;;;;;;56.88;22.98;;;;;;;-5.30;88.81;101520.28;1731327;82;26426;-83
2022/12/17 14:59:33;;;;;;;53.13;22.27;;;;;;;-5.35;88.62;101526.99;1725154;82;25964;-84
2022/12/17 15:02:24;;;;;;;56.75;22.80;;;;;;;-5.40;88.52;101528.08;1731992;81;25878;-83
2022/12/17 15:05:00;;;;;;;53.75;24.47;;;;;;;-5.41;88.71;101532.47;1739155;81;27642;-77
2022/12/17 15:07:29;;;;;;;56.25;25.65;;;;;;;-5.42;88.79;101540.34;1733160;81;25905;-77
2022/12/17 15:10:01;;;;;;;52.10;22.27;;;;;;;-5.40;88.85;101543.73;1718641;81;25737;-77
2022/12/17 15:12:31;;;;;;;56.20;22.40;;;;;;;-5.43;88.62;101547.80;1718778;81;26544;-76
2022/12/17 15:14:57;;;;;;;61.23;24.30;;;;;;;-5.47;88.66;101550.52;1728629;82;25820;-77
2022/12/17 15:17:24;;;;;;;56.50;23.60;;;;;;;-5.44;88.78;101547.39;1738345;81;28763;-77
2022/12/17 15:19:50;;;;;;;59.98;23.10;;;;;;;-5.43;88.72;101558.24;1731358;81;25790;-77
2022/12/17 15:22:17;;;;;;;58.50;23.50;;;;;;;-5.49;88.44;101561.48;1725652;81;25879;-77
2022/12/17 15:24:44;;;;;;;56.25;22.67;;;;;;;-5.52;88.38;101566.81;1728785;81;25851;-75
2022/12/17 15:27:15;;;;;;;47.00;20.68;;;;;;;-5.54;88.45;101564.72;1726170;81;25913;-76
2022/12/17 15:29:43;;;;;;;46.30;21.57;;;;;;;-5.56;88.42;101567.85;1726042;81;27500;-77
2022/12/17 15:32:17;;;;;;;49.60;22.52;;;;;;;-5.59;88.39;101573.66;1698898;82;26405;-76
2022/12/17 15:34:43;;;;;;;43.87;19.90;;;;;;;-5.60;88.48;101575.41;1716684;83;25882;-77
2022/12/17 15:37:10;;;;;;;52.93;22.27;;;;;;;-5.61;88.35;101575.48;1723405;82;25866;-76
2022/12/17 15:39:36;;;;;;;51.95;22.62;;;;;;;-5.70;88.20;101572.78;1719727;81;25818;-77
2022/12/17 15:44:47;;;;;;;52.60;23.25;;;;;;;-5.69;88.54;101582.30;1727770;81;25769;-76
2022/12/17 15:47:14;;;;;;;45.50;20.77;;;;;;;-5.68;88.62;101583.16;1707080;83;26003;-77
2022/12/17 15:49:40;;;;;;;54.53;23.02;;;;;;;-5.68;88.54;101585.31;1716305;82;25755;-76
2022/12/17 15:52:06;;;;;;;51.25;21.95;;;;;;;-5.70;88.57;101594.97;1738223;81;25845;-76
2022/12/17 15:54:33;;;;;;;52.85;23.38;;;;;;;-5.68;88.67;101593.14;1739998;81;27452;-77
2022/12/17 15:56:59;;;;;;;50.35;20.72;;;;;;;-5.60;89.30;101592.83;1727856;82;25660;-84
2022/12/17 15:59:25;;;;;;;51.95;23.12;;;;;;;-5.53;89.18;101589.07;1738372;81;26215;-84
2022/12/17 16:01:52;;;;;;;57.15;24.52;;;;;;;-5.50;88.92;101587.20;1727939;82;26040;-84
2022/12/17 16:04:18;;;;;;;56.37;24.82;;;;;;;-5.49;88.85;101593.25;1730781;82;25813;-73
2022/12/17 16:06:44;;;;;;;56.30;24.02;;;;;;;-5.47;88.77;101599.74;1722391;81;27410;-83
2022/12/17 16:09:11;;;;;;;64.37;26.42;;;;;;;-5.46;89.07;101602.28;1721101;81;25892;-76
2022/12/17 16:11:37;;;;;;;63.42;25.82;;;;;;;-5.40;89.11;101603.78;1729788;82;25731;-86
2022/12/17 16:14:03;;;;;;;64.82;25.57;;;;;;;-5.38;88.89;101606.73;1714664;82;26412;-84
2022/12/17 16:16:30;;;;;;;67.32;27.45;;;;;;;-5.40;88.72;101599.87;1721122;82;25944;-83
2022/12/17 16:18:56;;;;;;;58.00;24.27;;;;;;;-5.37;89.67;101603.67;1731087;82;26894;-86
2022/12/17 16:21:23;;;;;;;48.78;22.70;;;;;;;-5.33;89.23;101606.10;1740028;81;25306;-88
2022/12/17 16:23:49;;;;;;;53.05;23.73;;;;;;;-5.35;88.79;101605.77;1740994;81;26427;-84
2022/12/17 16:26:15;;;;;;;51.73;23.90;;;;;;;-5.34;88.98;101613.53;1732225;82;25843;-75
2022/12/17 16:28:42;;;;;;;57.80;25.48;;;;;;;-5.29;89.00;101614.20;1699536;83;26477;-75
2022/12/17 16:31:13;;;;;;;61.23;23.75;;;;;;;-5.27;89.20;101614.13;1704302;83;27642;-86
2022/12/17 16:33:42;;;;;;;54.48;23.05;;;;;;;-5.12;90.91;101617.42;1739623;81;33564;-76
2022/12/17 16:36:12;;;;;;;53.80;25.90;;;;;;;-5.02;89.92;101616.98;1727211;81;26292;-77
2022/12/17 16:38:48;;;;;;;52.10;21.20;;;;;;;-5.05;89.13;101615.83;1724037;81;25936;-77
2022/12/17 16:41:16;;;;;;;54.95;24.90;;;;;;;-5.05;89.55;101624.97;1720218;81;25345;-76
2022/12/17 16:43:42;;;;;;;54.67;24.02;;;;;;;-5.01;89.08;101627.84;1727826;81;27473;-76
2022/12/17 16:46:31;;;;;;;57.58;24.30;;;;;;;-5.01;89.68;101629.15;1741525;81;25835;-75
2022/12/17 16:49:04;;;;;;;54.50;24.40;;;;;;;-4.97;89.23;101633.78;1715614;81;25836;-78
2022/12/17 16:51:30;;;;;;;47.30;23.65;;;;;;;-4.96;88.90;101633.70;1730485;81;26579;-76
2022/12/17 16:53:58;;;;;;;59.67;25.52;;;;;;;-5.00;88.54;101635.20;1736167;81;26070;-77
2022/12/17 16:56:27;;;;;;;41.30;17.95;;;;;;;-5.01;88.76;101630.91;1739360;81;27467;-77
2022/12/17 16:58:55;;;;;;;45.40;19.45;;;;;;;-5.02;88.46;101642.25;1737712;81;26388;-76
2022/12/17 17:01:26;;;;;;;52.58;21.68;;;;;;;-5.09;88.42;101644.74;1725546;83;25927;-88
2022/12/17 17:03:54;;;;;;;58.87;26.17;;;;;;;-5.07;88.89;101648.14;1732958;81;25865;-88
2022/12/17 17:06:21;;;;;;;53.52;21.45;;;;;;;-5.09;88.74;101653.88;1725354;81;25787;-87
2022/12/17 17:08:48;;;;;;;49.20;20.60;;;;;;;-5.12;88.65;101654.85;1738145;81;27462;-85
2022/12/17 17:11:21;;;;;;;54.23;22.95;;;;;;;-5.14;88.65;101662.35;1724549;83;26515;-75
2022/12/17 17:13:50;;;;;;;41.53;19.62;;;;;;;-5.15;88.81;101664.59;1718214;83;25497;-88
2022/12/17 17:16:19;;;;;;;49.70;23.83;;;;;;;-5.11;89.13;101667.46;1721728;83;25890;-87
2022/12/17 17:18:45;;;;;;;46.13;20.23;;;;;;;-5.05;89.30;101669.82;1741944;81;25783;-88
2022/12/17 17:21:35;;;;;;;47.05;22.30;;;;;;;-5.05;89.08;101673.30;1736981;81;27559;-79
2022/12/17 17:24:19;;;;;;;49.08;21.30;;;;;;;-5.12;88.85;101674.44;1739694;81;25806;-88
2022/12/17 17:26:46;;;;;;;46.02;18.42;;;;;;;-5.16;88.98;101675.48;1732949;81;26461;-88
2022/12/17 17:29:13;;;;;;;49.60;19.15;;;;;;;-5.13;89.18;101669.29;1733065;81;26666;-76
2022/12/17 17:31:39;;;;;;;45.88;20.12;;;;;;;-5.15;89.12;101673.24;1734117;82;25929;-76
2022/12/17 17:34:10;;;;;;;44.65;22.35;;;;;;;-5.15;89.27;101669.81;1719150;81;27590;-76
2022/12/17 17:36:39;;;;;;;44.38;20.82;;;;;;;-5.14;89.37;101674.96;1732644;81;26582;-87
2022/12/17 17:39:06;;;;;;;49.75;21.50;;;;;;;-5.15;89.30;101675.03;1733321;81;26500;-83
2022/12/17 17:41:34;;;;;;;47.85;20.90;;;;;;;-5.13;89.48;101684.96;1733418;81;25757;-81
2022/12/17 17:44:09;;;;;;;49.13;21.07;;;;;;;-5.13;89.54;101681.04;1731997;81;26703;-81
2022/12/17 17:46:36;;;;;;;53.58;24.60;;;;;;;-5.12;89.64;101690.56;1732109;81;28252;-81
2022/12/17 17:49:05;;;;;;;57.23;24.25;;;;;;;-5.11;89.78;101694.41;1732448;81;25918;-82
2022/12/17 17:51:36;;;;;;;50.92;22.30;;;;;;;-5.06;89.93;101696.84;1733094;81;26361;-84
2022/12/17 17:54:03;;;;;;;53.28;22.82;;;;;;;-5.05;89.99;101695.50;1722973;82;25940;-83
2022/12/17 17:56:33;;;;;;;52.05;23.27;;;;;;;-5.02;89.94;101695.80;1732204;81;25909;-81
2022/12/17 17:59:09;;;;;;;57.35;24.07;;;;;;;-5.00;89.89;101701.37;1706178;82;27467;-84
2022/12/17 18:01:41;;;;;;;52.65;23.02;;;;;;;-5.00;89.93;101704.42;1733992;81;25956;-88
2022/12/17 18:04:11;;;;;;;56.42;26.52;;;;;;;-4.98;89.97;101706.52;1714006;82;25850;-85
2022/12/17 18:06:41;;;;;;;55.85;23.55;;;;;;;-4.95;89.99;101711.64;1731066;81;25913;-84
2022/12/17 18:09:09;;;;;;;54.63;25.27;;;;;;;-4.97;89.78;101710.40;1731873;81;25948;-83
2022/12/17 18:11:38;;;;;;;53.25;23.02;;;;;;;-4.99;89.95;101711.37;1722343;81;28450;-82
2022/12/17 18:14:07;;;;;;;60.52;26.73;;;;;;;-4.99;90.02;101713.53;1732130;81;25848;-83
2022/12/17 18:16:41;;;;;;;49.73;22.00;;;;;;;-4.99;90.11;101714.84;1727153;81;26264;-81
2022/12/17 18:19:20;;;;;;;63.83;27.73;;;;;;;-4.96;90.16;101723.84;1710267;82;25874;-83
2022/12/17 18:21:48;;;;;;;59.90;27.27;;;;;;;-4.93;90.34;101728.09;1718708;83;25364;-86
2022/12/17 18:24:21;;;;;;;57.03;24.70;;;;;;;-4.86;90.55;101726.95;1703491;83;27641;-84
2022/12/17 18:26:50;;;;;;;52.98;23.67;;;;;;;-4.78;90.71;101730.95;1701289;82;25751;-85
2022/12/17 18:29:27;;;;;;;52.20;22.70;;;;;;;-4.75;90.37;101733.42;1707892;82;26011;-83
2022/12/17 18:31:54;;;;;;;44.00;18.30;;;;;;;-4.77;90.19;101740.96;1699595;82;25866;-84
2022/12/17 18:34:26;;;;;;;47.03;20.70;;;;;;;-4.81;90.16;101749.36;1739370;81;25871;-83
2022/12/17 18:36:53;;;;;;;54.88;22.45;;;;;;;-4.81;90.31;101744.58;1730251;82;27478;-81
2022/12/17 18:39:23;;;;;;;45.05;20.68;;;;;;;-4.80;90.43;101737.16;1702039;84;25781;-81
2022/12/17 18:44:40;;;;;;;47.25;21.23;;;;;;;-4.78;90.45;101745.33;1731524;81;25936;-82
2022/12/17 18:47:09;;;;;;;52.78;24.87;;;;;;;-4.77;90.56;101753.55;1732623;81;26463;-83
2022/12/17 18:49:35;;;;;;;48.90;21.27;;;;;;;-4.74;90.71;101758.66;1720196;81;28289;-83
2022/12/17 18:52:03;;;;;;;49.65;23.10;;;;;;;-4.68;90.79;101769.80;1732530;82;25323;-84
2022/12/17 18:54:31;;;;;;;46.23;23.00;;;;;;;-4.64;90.99;101772.19;1740153;82;26401;-81
2022/12/17 18:56:57;;;;;;;43.80;21.68;;;;;;;-4.56;91.08;101774.52;1717905;83;26406;-83
2022/12/17 18:59:27;;;;;;;43.35;18.77;;;;;;;-4.55;90.81;101772.28;1707640;82;25897;-85
2022/12/17 19:01:55;;;;;;;41.88;21.17;;;;;;;-4.56;90.63;101772.76;1738366;81;27553;-83
2022/12/17 19:04:22;;;;;;;44.08;20.43;;;;;;;-4.60;90.55;101777.72;1733592;82;25558;-85
2022/12/17 19:06:54;;;;;;;42.73;20.75;;;;;;;-4.62;90.54;101774.77;1715874;82;25765;-86
2022/12/17 19:09:28;;;;;;;41.77;19.40;;;;;;;-4.64;90.62;101772.67;1733218;81;25990;-87
2022/12/17 19:11:56;;;;;;;43.05;18.60;;;;;;;-4.64;90.71;101772.67;1732263;81;25344;-84
2022/12/17 19:14:24;;;;;;;48.20;21.55;;;;;;;-4.67;90.78;101767.11;1724193;83;27458;-83
2022/12/17 19:16:53;;;;;;;42.85;22.07;;;;;;;-4.68;90.87;101768.01;1705526;82;25465;-87
2022/12/17 19:19:21;;;;;;;46.20;22.87;;;;;;;-4.68;91.00;101773.23;1720568;81;26426;-84
2022/12/17 19:21:48;;;;;;;41.65;21.73;;;;;;;-4.64;91.20;101780.04;1697235;84;25822;-84
2022/12/17 19:24:17;;;;;;;36.73;19.12;;;;;;;-4.61;91.19;101782.55;1733778;81;25306;-87
2022/12/17 19:26:44;;;;;;;48.17;21.20;;;;;;;-4.58;91.26;101779.81;1737046;81;27455;-82
2022/12/17 19:29:13;;;;;;;40.43;22.13;;;;;;;-4.57;91.15;101789.79;1732813;81;26342;-84
2022/12/17 19:31:40;;;;;;;36.13;18.00;;;;;;;-4.57;91.15;101781.95;1732312;82;25840;-85
2022/12/17 19:34:11;;;;;;;39.85;18.57;;;;;;;-4.56;91.22;101782.36;1731063;81;25812;-86
2022/12/17 19:36:39;;;;;;;30.17;14.95;;;;;;;-4.55;91.21;101774.44;1742171;81;25725;-86
2022/12/17 19:39:09;;;;;;;37.60;16.73;;;;;;;-4.58;91.15;101782.43;1733081;81;27509;-81
2022/12/17 19:41:36;;;;;;;33.98;17.60;;;;;;;-4.60;91.20;101784.70;1725415;83;26333;-85
2022/12/17 19:44:06;;;;;;;36.25;17.05;;;;;;;-4.61;91.32;101786.91;1745447;82;25815;-86
2022/12/17 19:46:35;;;;;;;44.00;20.23;;;;;;;-4.58;91.42;101802.04;1731027;82;26678;-82
2022/12/17 19:49:02;;;;;;;42.70;21.42;;;;;;;-4.54;91.51;101797.08;1735548;82;25841;-81
2022/12/17 19:51:30;;;;;;;39.67;19.85;;;;;;;-4.51;91.52;101806.08;1680223;84;27678;-81
2022/12/17 19:53:57;;;;;;;41.23;18.80;;;;;;;-4.45;91.57;101810.23;1722860;82;26016;-82
2022/12/17 19:56:27;;;;;;;35.33;16.35;;;;;;;-4.40;91.57;101810.88;1732924;82;26184;-82
2022/12/17 19:59:01;;;;;;;31.50;15.98;;;;;;;-4.40;91.42;101799.97;1733240;81;25811;-84
2022/12/17 20:01:31;;;;;;;32.90;15.45;;;;;;;-4.42;91.31;101807.02;1726339;81;25812;-84
2022/12/17 20:03:58;;;;;;;34.47;16.70;;;;;;;-4.42;91.36;101805.72;1729592;81;27629;-86
2022/12/17 20:06:28;;;;;;;39.95;19.55;;;;;;;-4.44;91.38;101808.86;1716662;83;26263;-87
2022/12/17 20:08:55;;;;;;;32.53;16.40;;;;;;;-4.44;91.48;101815.39;1725035;82;25840;-86
2022/12/17 20:11:33;;;;;;;39.75;18.98;;;;;;;-4.42;91.54;101812.70;1704049;83;25833;-82
2022/12/17 20:14:07;;;;;;;40.00;17.70;;;;;;;-4.39;91.52;101820.44;1731808;81;25634;-74
2022/12/17 20:16:39;;;;;;;32.25;17.10;;;;;;;-4.38;91.63;101822.98;1732304;81;27475;-75
2022/12/17 20:19:13;;;;;;;35.63;18.37;;;;;;;-4.36;91.63;101825.56;1728038;82;25934;-75
2022/12/17 20:21:40;;;;;;;37.85;19.90;;;;;;;-4.40;91.57;101822.64;1725208;81;26433;-76
2022/12/17 20:24:07;;;;;;;33.80;17.02;;;;;;;-4.41;91.60;101823.58;1737774;81;25847;-75
2022/12/17 20:26:35;;;;;;;35.33;17.42;;;;;;;-4.45;91.64;101828.09;1736002;81;25947;-75
2022/12/17 20:29:03;;;;;;;35.30;17.30;;;;;;;-4.43;91.84;101843.70;1732925;80;27549;-76
2022/12/17 20:31:29;;;;;;;34.35;17.73;;;;;;;-4.40;91.94;101851.41;1744796;81;26419;-76
2022/12/17 20:33:57;;;;;;;39.63;19.82;;;;;;;-4.39;92.02;101858.36;1740818;81;26337;-76
2022/12/17 20:36:23;;;;;;;28.47;15.35;;;;;;;-4.34;92.13;101859.86;1735801;81;26417;-75
2022/12/17 20:38:50;;;;;;;37.23;19.85;;;;;;;-4.31;92.10;101861.06;1717024;82;25885;-77
2022/12/17 20:41:28;;;;;;;30.37;14.75;;;;;;;-4.30;92.11;101853.59;1745130;80;27523;-76
2022/12/17 20:43:55;;;;;;;34.23;18.35;;;;;;;-4.28;92.18;101858.33;1735416;81;25733;-76
2022/12/17 20:46:24;;;;;;;33.92;17.42;;;;;;;-4.28;92.18;101858.33;1733275;82;25766;-76
2022/12/17 20:48:51;;;;;;;35.40;17.23;;;;;;;-4.28;92.18;101854.86;1730684;81;25824;-77
2022/12/17 20:51:21;;;;;;;37.93;18.62;;;;;;;-4.27;92.25;101857.41;1734637;81;25820;-76
2022/12/17 20:53:52;;;;;;;35.20;18.02;;;;;;;-4.26;92.22;101860.87;1738000;81;27551;-76
2022/12/17 20:56:22;;;;;;;34.53;17.35;;;;;;;-4.29;92.22;101855.30;1737064;81;25876;-76
2022/12/17 20:58:55;;;;;;;35.08;17.67;;;;;;;-4.29;92.29;101858.38;1743015;81;26439;-76
2022/12/17 21:01:25;;;;;;;33.98;16.65;;;;;;;-4.27;92.37;101864.39;1736333;81;25772;-76
2022/12/17 21:03:53;;;;;;;34.53;18.23;;;;;;;-4.26;92.41;101864.80;1738965;81;25910;-76
2022/12/17 21:06:24;;;;;;;38.05;19.10;;;;;;;-4.24;92.41;101872.12;1735966;80;27701;-76
2022/12/17 21:08:53;;;;;;;35.63;17.48;;;;;;;-4.21;92.50;101882.00;1736390;81;25769;-76
2022/12/17 21:11:23;;;;;;;35.55;16.67;;;;;;;-4.19;92.44;101886.71;1731599;81;25820;-76
2022/12/17 21:13:51;;;;;;;34.53;17.80;;;;;;;-4.18;92.43;101893.66;1730909;82;27020;-75
2022/12/17 21:16:22;;;;;;;33.02;15.95;;;;;;;-4.15;92.52;101897.92;1731868;82;25812;-75
2022/12/17 21:18:56;;;;;;;38.38;17.27;;;;;;;-4.10;92.53;101894.20;1729645;81;28293;-75
2022/12/17 21:21:28;;;;;;;36.65;17.57;;;;;;;-4.07;92.51;101891.92;1732925;81;25933;-76
2022/12/17 21:23:56;;;;;;;39.75;17.95;;;;;;;-4.05;92.47;101897.48;1739367;81;25840;-75
2022/12/17 21:26:28;;;;;;;38.98;19.30;;;;;;;-4.03;92.46;101904.81;1733765;81;25816;-76
2022/12/17 21:28:59;;;;;;;39.35;17.87;;;;;;;-3.99;92.42;101897.67;1736469;81;26466;-76
2022/12/17 21:31:34;;;;;;;40.63;18.00;;;;;;;-3.99;92.38;101900.30;1744918;81;28299;-76
2022/12/17 21:34:05;;;;;;;35.92;17.80;;;;;;;-3.98;92.42;101892.38;1727852;81;25870;-75
2022/12/17 21:36:32;;;;;;;;;;;;;;;-3.96;92.41;101898.39;1723316;81;25769;-75
2022/12/17 21:39:00;;;;;;;40.85;19.07;;;;;;;-3.94;92.42;101893.98;1726457;81;26340;-75
2022/12/17 21:41:31;;;;;;;35.00;15.15;;;;;;;-3.91;92.47;101900.82;1727233;81;25781;-75
2022/12/17 21:44:00;;;;;;;40.35;19.40;;;;;;;-3.88;92.47;101902.02;1730898;81;27520;-76
2022/12/17 21:46:28;;;;;;;32.78;15.98;;;;;;;-3.86;92.44;101898.02;1725597;81;25746;-75
2022/12/17 21:48:57;;;;;;;38.83;18.30;;;;;;;-3.85;92.47;101903.22;1720958;82;25749;-76
2022/12/17 21:51:25;;;;;;;35.85;17.25;;;;;;;-3.83;92.47;101902.69;1729514;81;25811;-76
2022/12/17 21:53:59;;;;;;;38.75;18.85;;;;;;;-3.79;92.42;101904.71;1738800;81;25860;-76
2022/12/17 21:56:28;;;;;;;40.60;18.67;;;;;;;-3.79;92.36;101908.19;1721845;82;28303;-76
2022/12/17 21:59:00;;;;;;;43.50;20.43;;;;;;;-3.77;92.37;101906.36;1709846;82;25692;-75
2022/12/17 22:01:30;;;;;;;42.40;18.92;;;;;;;-3.75;92.43;101904.52;1729474;81;25818;-76
2022/12/17 22:03:59;;;;;;;43.95;20.37;;;;;;;-3.72;92.43;101912.23;1730470;82;25780;-76
2022/12/17 22:06:29;;;;;;;37.08;17.87;;;;;;;-3.68;92.40;101926.06;1730645;82;25865;-75
2022/12/17 22:08:57;;;;;;;40.70;19.20;;;;;;;-3.65;92.36;101933.32;1738088;80;27611;-76
2022/12/17 22:11:26;;;;;;;46.10;19.15;;;;;;;-3.64;92.30;101938.11;1737362;81;25834;-76
2022/12/17 22:14:01;;;;;;;42.35;19.25;;;;;;;-3.62;92.35;101934.52;1726143;81;25758;-76
2022/12/17 22:16:45;;;;;;;39.13;19.23;;;;;;;-3.57;92.37;101939.56;1724565;82;25832;-75
2022/12/17 22:19:16;;;;;;;43.98;19.98;;;;;;;-3.54;92.33;101949.44;1695648;83;25899;-76
2022/12/17 22:21:44;;;;;;;45.67;20.57;;;;;;;-3.52;92.35;101947.61;1731685;81;28413;-76
2022/12/17 22:24:20;;;;;;;45.15;20.30;;;;;;;-3.47;92.38;101948.73;1729955;81;26083;-76
2022/12/17 22:26:47;;;;;;;45.48;19.98;;;;;;;-3.43;92.41;101950.30;1703467;84;25920;-75
2022/12/17 22:32:58;;;;;;;37.13;17.52;;;;;;;-3.39;92.44;101950.10;1698917;83;25947;-76
2022/12/17 22:34:26;;;;;;;42.05;19.32;;;;;;;-3.33;92.30;101962.08;1645376;86;28488;-76
2022/12/17 22:36:53;;;;;;;47.00;19.05;;;;;;;-3.32;92.19;101975.58;1689365;83;25772;-76
2022/12/17 22:39:19;;;;;;;44.18;19.30;;;;;;;-3.38;92.08;101973.23;1710209;83;26526;-76
2022/12/17 22:44:30;;;;;;;46.18;20.12;;;;;;;-3.29;92.22;101985.91;1714976;81;26539;-76
2022/12/17 22:46:56;;;;;;;44.20;18.95;;;;;;;-3.25;92.24;101987.52;1712757;83;27513;-76
2022/12/17 22:49:22;;;;;;;48.65;20.88;;;;;;;-3.25;92.22;101989.66;1711614;83;25769;-75
2022/12/17 22:51:49;;;;;;;51.18;21.85;;;;;;;-3.23;92.30;101986.98;1700791;83;25940;-76
2022/12/17 22:54:15;;;;;;;51.53;21.48;;;;;;;-3.20;92.28;101981.59;1716097;83;25833;-75
2022/12/17 22:56:42;;;;;;;47.88;20.70;;;;;;;-3.19;92.26;101990.69;1710897;83;25797;-75
2022/12/17 22:59:17;;;;;;;42.88;19.32;;;;;;;-3.15;92.27;101988.81;1706970;83;27502;-75
2022/12/17 23:01:44;;;;;;;43.83;18.70;;;;;;;-3.12;92.04;101990.45;1742234;81;26515;-76
2022/12/17 23:04:14;;;;;;;40.30;19.67;;;;;;;-3.12;92.04;101990.45;1748710;81;25762;-75
2022/12/17 23:06:44;;;;;;;47.17;19.98;;;;;;;-3.14;92.08;101988.73;1739566;81;26512;-76
2022/12/17 23:09:12;;;;;;;39.15;18.12;;;;;;;-3.14;92.07;101988.73;1731376;81;26502;-75
2022/12/17 23:11:39;;;;;;;50.08;21.20;;;;;;;-3.14;92.09;101986.56;1726906;81;28276;-75
2022/12/17 23:14:07;;;;;;;40.50;19.48;;;;;;;-3.14;92.09;101988.73;1732298;82;25949;-76
2022/12/17 23:16:39;;;;;;;48.60;20.15;;;;;;;-3.11;92.11;101993.00;1735354;81;25848;-75
2022/12/17 23:19:07;;;;;;;49.53;19.85;;;;;;;-3.10;92.09;101996.48;1733211;82;25791;-76
2022/12/17 23:21:34;;;;;;;42.48;20.12;;;;;;;-3.10;92.14;101996.00;1734052;81;25852;-75
2022/12/17 23:24:00;;;;;;;44.27;19.45;;;;;;;-3.07;92.19;101999.81;1728100;82;27450;-76
2022/12/17 23:26:31;;;;;;;46.88;19.85;;;;;;;-3.12;92.14;101983.42;1732060;81;25849;-76
2022/12/17 23:29:01;;;;;;;45.50;20.45;;;;;;;-3.12;92.14;101983.42;1719151;83;26444;-75
2022/12/17 23:31:34;;;;;;;48.97;20.97;;;;;;;-3.05;92.18;102002.36;1719899;81;26563;-75
2022/12/17 23:34:01;;;;;;;45.45;19.90;;;;;;;-3.05;92.20;102010.22;1719912;81;25932;-76
2022/12/17 23:36:27;;;;;;;44.88;20.23;;;;;;;-3.03;92.23;102009.24;1730598;82;27462;-76
2022/12/17 23:38:55;;;;;;;48.60;20.02;;;;;;;-3.04;92.20;102013.25;1730419;81;25841;-76
2022/12/17 23:41:29;;;;;;;48.90;20.10;;;;;;;-3.01;92.22;102019.20;1725197;81;26474;-75
2022/12/17 23:43:56;;;;;;;44.93;19.52;;;;;;;-3.02;92.19;102017.97;1725844;82;25809;-76
2022/12/17 23:46:25;;;;;;;49.88;20.23;;;;;;;-2.99;92.12;102027.84;1719385;82;25758;-76
2022/12/17 23:48:51;;;;;;;55.80;23.02;;;;;;;-2.99;92.12;102027.84;1730872;81;27478;-75
2022/12/17 23:51:20;;;;;;;45.92;20.43;;;;;;;-2.97;92.31;102031.73;1736560;81;25837;-75
2022/12/17 23:53:47;;;;;;;44.53;20.10;;;;;;;-2.99;92.27;102040.13;1708657;81;26617;-76
2022/12/17 23:56:18;;;;;;;43.42;18.70;;;;;;;-2.99;92.34;102043.58;1734463;81;25859;-76
2022/12/17 23:58:46;;;;;;;42.30;18.90;;;;;;;-2.99;92.37;102044.88;1741369;81;25887;-76
